Time;durP1;ratioP1;P1;durP2;ratioP2;P2;SDS_P1;SDS_P2;PMS_P1;PMS_P2;Temp;Humidity;BMP_temperature;BMP_pressure;BME280_temperature;BME280_humidity;BME280_pressure;Samples;Min_cycle;Max_cycle;Signal;HPM_P1;HPM_P2
2021/08/15 00:01:57;;;;;;;12.95;9.13;;;691.80;1459.20;;;;;;5093685;28;20461;-77
2021/08/15 00:04:23;;;;;;;13.65;9.07;;;691.70;1484.80;;;;;;5093694;28;20354;-78
2021/08/15 00:06:49;;;;;;;12.73;8.80;;;691.70;1484.80;;;;;;5093695;28;20527;-77
2021/08/15 00:09:15;;;;;;;15.63;8.57;;;691.70;1484.80;;;;;;5092346;28;20165;-77
2021/08/15 00:11:41;;;;;;;14.85;8.98;;;;;;;;;;5092027;28;20377;-78
2021/08/15 00:14:07;;;;;;;11.88;8.52;;;;;;;;;;5092316;28;20536;-78
2021/08/15 00:16:35;;;;;;;9.27;8.30;;;;;;;;;;5093544;28;20056;-78
2021/08/15 00:19:05;;;;;;;9.60;7.82;;;;;;;;;;5093526;28;20024;-77
2021/08/15 00:21:35;;;;;;;11.13;8.23;;;;;;;;;;5092312;28;20028;-78
2021/08/15 00:24:01;;;;;;;12.20;8.52;;;;;;;;;;5092282;28;20381;-78
2021/08/15 00:26:27;;;;;;;10.90;8.05;;;;;;;;;;5092312;28;20031;-78
2021/08/15 00:28:54;;;;;;;12.75;8.15;;;;;;;;;;5092134;28;20069;-77
2021/08/15 00:31:20;;;;;;;10.55;8.10;;;;;;;;;;5092161;28;20028;-78
2021/08/15 00:33:46;;;;;;;9.02;7.75;;;;;;;;;;5095276;28;20089;-77
2021/08/15 00:36:12;;;;;;;12.45;8.65;;;;;;;;;;5096304;28;20020;-77
2021/08/15 00:38:38;;;;;;;10.48;8.57;;;;;;;;;;5096146;28;20361;-78
2021/08/15 00:41:06;;;;;;;12.70;8.90;;;;;;;;;;5096232;28;20111;-77
2021/08/15 00:43:33;;;;;;;10.65;8.85;;;;;;;;;;5096125;28;20114;-78
2021/08/15 00:45:59;;;;;;;9.60;8.52;;;;;;;;;;5096046;28;20434;-78
2021/08/15 00:48:25;;;;;;;14.05;9.20;;;;;;;;;;5097640;28;20431;-77
2021/08/15 00:50:52;;;;;;;10.25;8.82;;;;;;;;;;5097568;28;20069;-77
2021/08/15 00:53:18;;;;;;;15.15;8.68;;;;;;;;;;5096067;28;20028;-78
2021/08/15 00:55:44;;;;;;;14.15;8.85;;;;;;;;;;5095879;28;20052;-78
2021/08/15 00:58:10;;;;;;;12.68;8.70;;;;;;;;;;5097019;28;20028;-76
2021/08/15 01:00:37;;;;;;;11.27;8.93;;;;;;;;;;5097015;28;20020;-78
2021/08/15 01:03:03;;;;;;;14.57;8.85;;;;;;;;;;5097079;28;20035;-77
2021/08/15 01:05:30;;;;;;;20.27;9.30;;;;;;;;;;5095770;28;20024;-77
2021/08/15 01:07:58;;;;;;;15.82;9.35;;;691.70;1484.80;;;;;;5097313;28;20103;-78
2021/08/15 01:10:24;;;;;;;12.00;8.63;;;691.60;1484.80;;;;;;5096985;28;20096;-79
2021/08/15 01:12:50;;;;;;;11.77;8.77;;;691.40;1510.40;;;;;;5095329;28;20083;-78
2021/08/15 01:15:17;;;;;;;12.70;8.68;;;691.40;1484.80;;;;;;5096777;28;20016;-78
2021/08/15 01:17:43;;;;;;;11.02;7.82;;;691.30;1510.40;;;;;;5096788;28;20073;-78
2021/08/15 01:20:10;;;;;;;13.32;8.63;;;691.30;1510.40;;;;;;5096804;28;20031;-77
2021/08/15 01:22:38;;;;;;;13.70;8.35;;;691.30;1510.40;;;;;;5096571;28;20032;-77
2021/08/15 01:25:05;;;;;;;12.80;8.70;;;691.30;1510.40;;;;;;5095113;28;20472;-77
2021/08/15 01:27:38;;;;;;;13.27;9.07;;;691.30;1510.40;;;;;;5096642;28;20067;-78
2021/08/15 01:30:07;;;;;;;9.55;8.18;;;691.30;1510.40;;;;;;5095323;28;20116;-78
2021/08/15 01:32:33;;;;;;;14.02;8.88;;;691.20;1510.40;;;;;;5095070;28;20492;-78
2021/08/15 01:35:02;;;;;;;17.25;9.20;;;691.20;1510.40;;;;;;5095179;28;20028;-78
2021/08/15 01:37:28;;;;;;;10.65;9.15;;;691.20;1510.40;;;;;;5096333;28;20023;-78
2021/08/15 01:39:55;;;;;;;23.25;9.65;;;691.20;1510.40;;;;;;5095160;28;20024;-80
2021/08/15 01:42:20;;;;;;;12.45;9.15;;;691.30;1510.40;;;;;;5095128;28;20053;-79
2021/08/15 01:44:46;;;;;;;11.85;9.00;;;691.20;1510.40;;;;;;5095776;28;20020;-78
2021/08/15 01:47:12;;;;;;;17.55;8.65;;;691.20;1510.40;;;;;;5094925;28;20024;-79
2021/08/15 01:49:38;;;;;;;12.15;8.60;;;691.20;1510.40;;;;;;5096094;28;20027;-79
2021/08/15 01:52:04;;;;;;;12.43;9.23;;;691.20;1510.40;;;;;;5096087;28;20481;-79
2021/08/15 01:54:30;;;;;;;12.05;8.38;;;691.30;1484.80;;;;;;5096101;28;20388;-79
2021/08/15 01:56:56;;;;;;;13.82;8.77;;;691.30;1484.80;;;;;;5096129;28;20476;-78
2021/08/15 01:59:26;;;;;;;11.02;9.02;;;691.20;1484.80;;;;;;5094657;28;20024;-78
2021/08/15 02:01:52;;;;;;;15.80;9.60;;;691.20;1484.80;;;;;;5095959;28;20028;-78
2021/08/15 02:04:18;;;;;;;12.63;9.63;;;691.20;1484.80;;;;;;5095950;28;20074;-79
2021/08/15 02:06:44;;;;;;;15.13;9.40;;;691.20;1484.80;;;;;;5095842;28;20532;-78
2021/08/15 02:09:10;;;;;;;15.05;9.60;;;691.20;1484.80;;;;;;5094589;28;20020;-79
2021/08/15 02:11:36;;;;;;;13.00;8.75;;;691.20;1484.80;;;;;;5094115;28;20048;-78
2021/08/15 02:14:02;;;;;;;11.50;9.15;;;691.20;1484.80;;;;;;5094437;28;20115;-79
2021/08/15 02:16:29;;;;;;;12.95;8.25;;;691.20;1484.80;;;;;;5095569;28;20016;-79
2021/08/15 02:18:54;;;;;;;12.13;8.10;;;691.20;1484.80;;;;;;5094524;28;20089;-79
2021/08/15 02:21:20;;;;;;;12.70;9.23;;;691.20;1484.80;;;;;;5094284;28;20115;-79
2021/08/15 02:23:46;;;;;;;10.88;8.65;;;691.20;1484.80;;;;;;5095578;28;20028;-78
2021/08/15 02:26:12;;;;;;;9.82;8.45;;;691.20;1484.80;;;;;;5093875;28;20020;-78
2021/08/15 02:28:38;;;;;;;11.60;8.15;;;691.20;1484.80;;;;;;5094126;28;20024;-78
2021/08/15 02:31:04;;;;;;;11.40;8.43;;;691.20;1459.20;;;;;;5095622;28;20077;-78
2021/08/15 02:33:30;;;;;;;11.93;8.63;;;691.20;1484.80;;;;;;5093971;28;20063;-78
2021/08/15 02:35:56;;;;;;;9.90;7.80;;;666.50;1484.80;;;;;;5095302;28;20016;-79
2021/08/15 02:38:23;;;;;;;13.73;9.02;;;666.40;1484.80;;;;;;5093956;28;20024;-78
2021/08/15 02:40:50;;;;;;;13.45;8.27;;;666.40;1510.40;;;;;;5093920;28;20020;-78
2021/08/15 02:43:16;;;;;;;14.52;8.20;;;666.30;1510.40;;;;;;5093803;28;20107;-78
2021/08/15 02:45:42;;;;;;;28.15;9.00;;;666.40;1510.40;;;;;;5093766;28;20044;-78
2021/08/15 02:48:08;;;;;;;15.93;8.80;;;666.30;1510.40;;;;;;5093787;28;20020;-77
2021/08/15 02:50:34;;;;;;;10.38;8.68;;;666.30;1510.40;;;;;;5093732;28;20027;-78
2021/08/15 02:53:00;;;;;;;11.93;8.70;;;666.30;1510.40;;;;;;5093504;28;20097;-77
2021/08/15 02:55:25;;;;;;;15.00;8.77;;;666.30;1536.00;;;;;;5093191;28;20031;-77
2021/08/15 02:57:51;;;;;;;15.65;9.20;;;666.40;1510.40;;;;;;5094624;28;20114;-78
2021/08/15 03:00:17;;;;;;;15.48;8.65;;;666.30;1536.00;;;;;;5093380;28;20465;-77
2021/08/15 03:02:43;;;;;;;11.88;8.50;;;;;;;;;;5094124;28;20032;-77
2021/08/15 03:05:11;;;;;;;15.15;8.88;;;;;;;;;;5094117;28;20044;-77
2021/08/15 03:07:37;;;;;;;11.35;8.68;;;;;;;;;;5094420;28;20092;-77
2021/08/15 03:10:04;;;;;;;11.77;9.18;;;;;;;;;;5094658;28;20485;-76
2021/08/15 03:12:30;;;;;;;13.80;8.75;;;666.50;1510.40;;;;;;5093899;28;20515;-77
2021/08/15 03:14:56;;;;;;;20.05;9.40;;;666.30;1536.00;;;;;;5092533;28;20237;-78
2021/08/15 03:17:21;;;;;;;14.82;9.45;;;666.30;1536.00;;;;;;5093925;28;20031;-77
2021/08/15 03:19:48;;;;;;;15.50;9.32;;;;;;;;;;5092902;28;20016;-76
2021/08/15 03:22:13;;;;;;;14.93;9.05;;;666.40;1510.40;;;;;;5094165;28;20032;-78
2021/08/15 03:24:39;;;;;;;16.40;9.55;;;666.20;1536.00;;;;;;5093981;28;20029;-77
2021/08/15 03:27:05;;;;;;;10.95;9.45;;;666.10;1536.00;;;;;;5094377;28;20027;-77
2021/08/15 03:29:32;;;;;;;12.25;8.88;;;666.10;1536.00;;;;;;5092973;28;20115;-77
2021/08/15 03:31:57;;;;;;;12.30;9.50;;;666.10;1561.60;;;;;;5092744;28;20024;-76
2021/08/15 03:34:23;;;;;;;15.60;9.60;;;666.00;1561.60;;;;;;5092771;28;20098;-77
2021/08/15 03:36:50;;;;;;;12.52;9.02;;;666.00;1561.60;;;;;;5093826;28;20016;-77
2021/08/15 03:39:16;;;;;;;16.65;10.38;;;;;;;;;;5092075;28;20749;-77
2021/08/15 03:41:43;;;;;;;23.52;11.20;;;666.20;1561.60;;;;;;5093369;28;20028;-77
2021/08/15 03:44:09;;;;;;;24.15;12.23;;;666.00;1587.20;;;;;;5092022;28;20040;-77
2021/08/15 03:46:35;;;;;;;18.00;10.25;;;665.90;1587.20;;;;;;5091932;28;20023;-77
2021/08/15 03:49:01;;;;;;;19.38;10.40;;;665.90;1587.20;;;;;;5093320;28;20016;-75
2021/08/15 03:51:27;;;;;;;21.38;11.15;;;665.80;1561.60;;;;;;5093372;28;20028;-78
2021/08/15 03:53:53;;;;;;;20.88;11.30;;;665.80;1561.60;;;;;;5093565;28;20062;-76
2021/08/15 03:56:19;;;;;;;26.40;11.25;;;665.80;1587.20;;;;;;5093645;28;20484;-77
2021/08/15 03:58:44;;;;;;;21.85;12.05;;;665.70;1587.20;;;;;;5093560;28;20484;-77
2021/08/15 04:01:10;;;;;;;21.65;11.73;;;665.70;1587.20;;;;;;5092265;28;20131;-76
2021/08/15 04:03:37;;;;;;;24.33;12.40;;;665.70;1587.20;;;;;;5092210;28;20061;-78
2021/08/15 04:06:08;;;;;;;25.15;12.63;;;665.70;1612.80;;;;;;5093494;28;20028;-79
2021/08/15 04:08:34;;;;;;;22.20;11.65;;;665.70;1612.80;;;;;;5092106;28;20024;-77
2021/08/15 04:11:00;;;;;;;78.00;14.27;;;665.70;1612.80;;;;;;5091775;28;20066;-79
2021/08/15 04:13:26;;;;;;;32.25;12.13;;;665.70;1612.80;;;;;;5093435;28;20467;-77
2021/08/15 04:15:52;;;;;;;22.40;11.85;;;665.60;1612.80;;;;;;5092079;28;20415;-77
2021/08/15 04:18:18;;;;;;;38.97;12.50;;;640.90;1612.80;;;;;;5093218;28;20465;-77
2021/08/15 04:20:44;;;;;;;32.08;11.43;;;640.90;1612.80;;;;;;5093265;28;20038;-77
2021/08/15 04:23:10;;;;;;;47.28;13.18;;;640.80;1612.80;;;;;;5093343;28;20025;-77
2021/08/15 04:25:36;;;;;;;28.35;11.88;;;;;;;;;;5091931;28;20081;-77
2021/08/15 04:28:03;;;;;;;22.27;11.60;;;;;;;;;;5092008;28;20089;-77
2021/08/15 04:30:29;;;;;;;24.95;12.57;;;;;;;;;;5093273;28;20031;-76
2021/08/15 04:32:55;;;;;;;22.50;12.45;;;;;;;;;;5091952;28;20085;-78
2021/08/15 04:35:21;;;;;;;84.22;15.23;;;;;;;;;;5093124;28;20017;-77
2021/08/15 04:37:47;;;;;;;28.63;14.80;;;;;;;;;;5092024;28;20028;-78
2021/08/15 04:40:14;;;;;;;23.77;14.25;;;;;;;;;;5091925;28;20024;-78
2021/08/15 04:42:40;;;;;;;27.45;13.48;;;;;;;;;;5091877;28;20475;-77
2021/08/15 04:45:06;;;;;;;29.10;14.30;;;;;;;;;;5091997;28;20024;-77
2021/08/15 04:47:32;;;;;;;31.10;14.77;;;;;;;;;;5091823;28;20024;-76
2021/08/15 04:49:58;;;;;;;61.70;16.40;;;;;;;;;;5093139;28;20024;-75
2021/08/15 04:52:25;;;;;;;33.10;14.55;;;;;;;;;;5093407;28;20043;-76
2021/08/15 04:54:51;;;;;;;36.45;16.35;;;;;;;;;;5093192;28;20032;-76
2021/08/15 04:57:17;;;;;;;31.73;14.48;;;;;;;;;;5091753;28;20024;-76
2021/08/15 04:59:43;;;;;;;32.35;14.75;;;;;;;;;;5091465;28;20024;-76
2021/08/15 05:02:10;;;;;;;32.90;15.85;;;;;;;;;;5092577;28;20077;-77
2021/08/15 05:04:36;;;;;;;28.02;14.95;;;;;;;;;;5092454;28;20427;-78
2021/08/15 05:07:05;;;;;;;29.45;15.07;;;;;;;;;;5092417;28;20485;-77
2021/08/15 05:09:31;;;;;;;27.60;14.48;;;;;;;;;;5092516;28;20032;-77
2021/08/15 05:11:57;;;;;;;28.35;14.35;;;;;;;;;;5090988;28;20060;-77
2021/08/15 05:14:23;;;;;;;26.33;16.05;;;;;;;;;;5091191;28;20111;-76
2021/08/15 05:16:49;;;;;;;22.25;14.68;;;;;;;;;;5091706;28;20028;-77
2021/08/15 05:19:16;;;;;;;24.63;15.40;;;;;;;;;;5093868;28;20477;-77
2021/08/15 05:21:42;;;;;;;22.17;15.05;;;;;;;;;;5096980;28;20107;-77
2021/08/15 05:24:08;;;;;;;25.63;15.85;;;;;;;;;;5096689;28;20107;-77
2021/08/15 05:26:34;;;;;;;40.65;15.10;;;;;;;;;;5096672;28;20099;-77
2021/08/15 05:29:01;;;;;;;26.33;13.73;;;;;;;;;;5095267;28;20034;-77
2021/08/15 05:31:27;;;;;;;22.10;13.60;;;;;;;;;;5096713;28;20031;-77
2021/08/15 05:33:53;;;;;;;18.50;14.65;;;;;;;;;;5095169;28;20106;-76
2021/08/15 05:36:19;;;;;;;19.88;13.75;;;;;;;;;;5095172;28;20470;-77
2021/08/15 05:38:45;;;;;;;20.73;14.95;;;;;;;;;;5095082;28;20530;-77
2021/08/15 05:41:12;;;;;;;16.23;13.82;;;;;;;;;;5095099;28;20035;-77
2021/08/15 05:43:38;;;;;;;19.38;13.25;;;;;;;;;;5096537;28;20073;-77
2021/08/15 05:46:04;;;;;;;15.98;12.43;;;691.30;1561.60;;;;;;5096511;28;20443;-77
2021/08/15 05:48:30;;;;;;;17.30;12.02;;;691.20;1612.80;;;;;;5096193;28;20050;-76
2021/08/15 05:50:56;;;;;;;20.88;11.82;;;666.40;1587.20;;;;;;5096112;28;20028;-77
2021/08/15 05:53:22;;;;;;;14.65;11.82;;;666.40;1587.20;;;;;;5094728;28;20036;-76
2021/08/15 05:55:48;;;;;;;25.40;12.30;;;666.40;1587.20;;;;;;5096078;28;20024;-75
2021/08/15 05:58:14;;;;;;;44.03;12.88;;;666.40;1587.20;;;;;;5096039;28;20032;-76
2021/08/15 06:00:40;;;;;;;32.88;13.60;;;666.50;1561.60;;;;;;5095983;28;20444;-77
2021/08/15 06:03:06;;;;;;;174.23;34.55;;;691.20;1561.60;;;;;;5095892;28;20065;-76
2021/08/15 06:05:32;;;;;;;103.22;25.30;;;691.20;1561.60;;;;;;5094565;28;20031;-76
2021/08/15 06:07:57;;;;;;;107.70;61.58;;;691.20;1561.60;;;;;;5095866;28;20062;-76
2021/08/15 06:10:23;;;;;;;73.07;34.22;;;691.30;1561.60;;;;;;5095781;28;20481;-76
2021/08/15 06:12:49;;;;;;;34.65;17.38;;;691.30;1561.60;;;;;;5095358;28;20578;-76
2021/08/15 06:15:15;;;;;;;30.55;15.32;;;691.30;1561.60;;;;;;5095728;28;20020;-77
2021/08/15 06:17:42;;;;;;;31.88;17.67;;;691.30;1561.60;;;;;;5095648;28;20105;-77
2021/08/15 06:20:10;;;;;;;35.75;23.20;;;691.40;1536.00;;;;;;5095620;28;20027;-77
2021/08/15 06:22:44;;;;;;;26.67;19.30;;;691.50;1536.00;;;;;;5095549;28;20383;-76
2021/08/15 06:25:12;;;;;;;29.75;12.00;;;691.50;1510.40;;;;;;5094315;28;20487;-77
2021/08/15 06:27:48;;;;;;;25.08;10.98;;;691.60;1510.40;;;;;;5094235;28;20030;-76
2021/08/15 06:30:15;;;;;;;58.78;11.65;;;691.70;1510.40;;;;;;5095490;28;20019;-76
2021/08/15 06:32:50;;;;;;;91.57;13.23;;;691.70;1536.00;;;;;;5095516;28;20372;-77
2021/08/15 06:35:17;;;;;;;31.90;8.95;;;692.00;1510.40;;;;;;5094030;28;20020;-77
2021/08/15 06:37:44;;;;;;;19.95;9.32;;;692.00;1484.80;;;;;;5093968;28;20046;-77
2021/08/15 06:40:11;;;;;;;24.42;9.38;;;692.10;1459.20;;;;;;5093902;28;20020;-76
2021/08/15 06:42:37;;;;;;;27.38;10.38;;;716.80;1510.40;;;;;;5095131;28;20036;-77
2021/08/15 06:45:03;;;;;;;29.35;9.73;;;716.90;1484.80;;;;;;5095392;28;20016;-76
2021/08/15 06:47:29;;;;;;;21.42;8.32;;;717.00;1459.20;;;;;;5093635;28;20400;-77
2021/08/15 06:49:55;;;;;;;18.40;8.00;;;717.20;1459.20;;;;;;5095135;28;20020;-76
2021/08/15 06:52:21;;;;;;;14.27;8.90;;;717.20;1459.20;;;;;;5094862;28;20024;-76
2021/08/15 06:54:47;;;;;;;11.88;9.13;;;717.30;1459.20;;;;;;5094875;28;20036;-75
2021/08/15 06:57:14;;;;;;;39.22;9.90;;;717.40;1459.20;;;;;;5093612;28;20020;-77
2021/08/15 06:59:40;;;;;;;42.88;11.23;;;717.60;1459.20;;;;;;5094779;28;20027;-76
2021/08/15 07:02:06;;;;;;;39.78;11.80;;;717.60;1433.60;;;;;;5094722;28;20017;-76
2021/08/15 07:04:32;;;;;;;31.08;11.15;;;717.70;1433.60;;;;;;5094759;28;20028;-75
2021/08/15 07:06:58;;;;;;;13.93;8.27;;;742.40;1459.20;;;;;;5093321;28;20020;-75
2021/08/15 07:09:24;;;;;;;22.05;9.00;;;742.40;1459.20;;;;;;5094621;28;20028;-76
2021/08/15 07:11:50;;;;;;;30.33;8.32;;;742.50;1459.20;;;;;;5093016;28;20559;-76
2021/08/15 07:14:16;;;;;;;448.83;37.35;;;742.60;1433.60;;;;;;5093355;28;20031;-75
2021/08/15 07:16:42;;;;;;;205.38;18.83;;;742.60;1433.60;;;;;;5094520;28;20045;-75
2021/08/15 07:19:08;;;;;;;79.75;11.30;;;742.70;1433.60;;;;;;5094503;28;20098;-75
2021/08/15 07:21:34;;;;;;;36.55;8.52;;;742.70;1433.60;;;;;;5093155;28;20020;-78
2021/08/15 07:24:00;;;;;;;17.73;8.38;;;742.90;1408.00;;;;;;5094394;28;20027;-76
2021/08/15 07:26:26;;;;;;;18.30;8.10;;;742.90;1408.00;;;;;;5093034;28;20069;-75
2021/08/15 07:28:53;;;;;;;14.07;7.72;;;742.90;1382.40;;;;;;5092997;28;20044;-76
2021/08/15 07:31:19;;;;;;;17.60;7.93;;;743.00;1408.00;;;;;;5094205;28;20024;-77
2021/08/15 07:33:46;;;;;;;22.80;8.07;;;743.00;1382.40;;;;;;5094093;28;20039;-76
2021/08/15 07:36:13;;;;;;;16.40;7.38;;;743.10;1356.80;;;;;;5092796;28;20425;-76
2021/08/15 07:38:39;;;;;;;11.55;7.63;;;743.10;1356.80;;;;;;5094158;28;20030;-76
2021/08/15 07:41:05;;;;;;;13.50;6.95;;;743.10;1382.40;;;;;;5094008;28;20024;-76
2021/08/15 07:43:31;;;;;;;9.70;7.70;;;743.20;1356.80;;;;;;5093594;28;20020;-75
2021/08/15 07:45:57;;;;;;;20.00;11.43;;;743.30;1382.40;;;;;;5094249;28;20031;-76
2021/08/15 07:48:23;;;;;;;14.25;10.88;;;768.00;1382.40;;;;;;5092641;28;20028;-76
2021/08/15 07:50:50;;;;;;;12.05;9.38;;;768.00;1382.40;;;;;;5093941;28;20024;-76
2021/08/15 07:53:27;;;;;;;10.30;7.20;;;768.00;1382.40;;;;;;5092457;28;20047;-75
2021/08/15 07:55:55;;;;;;;11.10;7.90;;;768.00;1382.40;;;;;;5094028;28;20020;-74
2021/08/15 07:58:22;;;;;;;17.90;7.75;;;768.10;1382.40;;;;;;5093864;28;20027;-75
2021/08/15 08:00:49;;;;;;;10.90;7.85;;;768.10;1382.40;;;;;;5093731;28;20099;-75
2021/08/15 08:03:16;;;;;;;10.35;7.18;;;768.20;1382.40;;;;;;5092418;28;20031;-75
2021/08/15 08:05:42;;;;;;;8.95;7.07;;;768.20;1356.80;;;;;;5093686;28;20024;-76
2021/08/15 08:08:08;;;;;;;9.20;7.13;;;768.20;1356.80;;;;;;5093710;28;20055;-76
2021/08/15 08:10:36;;;;;;;8.35;6.82;;;768.30;1356.80;;;;;;5093671;28;20020;-77
2021/08/15 08:13:02;;;;;;;9.73;7.00;;;768.30;1305.60;;;;;;5093428;28;20044;-77
2021/08/15 08:15:29;;;;;;;8.57;6.25;;;768.40;1331.20;;;;;;5093609;28;20070;-77
2021/08/15 08:17:55;;;;;;;11.32;7.75;;;768.40;1305.60;;;;;;5093651;28;20059;-76
2021/08/15 08:20:21;;;;;;;9.68;6.78;;;768.40;1331.20;;;;;;5093747;28;20020;-76
2021/08/15 08:22:48;;;;;;;10.63;7.05;;;768.50;1305.60;;;;;;5093520;28;20035;-77
2021/08/15 08:25:15;;;;;;;8.95;7.05;;;768.40;1331.20;;;;;;5092239;28;20020;-76
2021/08/15 08:27:41;;;;;;;10.32;6.20;;;768.60;1331.20;;;;;;5093479;28;20455;-78
2021/08/15 08:30:08;;;;;;;12.20;6.70;;;768.60;1305.60;;;;;;5093454;28;20099;-78
2021/08/15 08:32:34;;;;;;;13.30;6.60;;;768.70;1305.60;;;;;;5092125;28;20040;-77
2021/08/15 08:35:00;;;;;;;20.08;7.75;;;768.70;1305.60;;;;;;5093417;28;20012;-76
2021/08/15 08:37:26;;;;;;;11.23;6.78;;;768.70;1280.00;;;;;;5093388;28;20024;-76
2021/08/15 08:39:56;;;;;;;14.90;6.47;;;768.70;1305.60;;;;;;5093353;28;20023;-77
2021/08/15 08:42:22;;;;;;;9.20;6.90;;;768.70;1280.00;;;;;;5093369;28;20070;-77
2021/08/15 08:44:48;;;;;;;11.00;6.45;;;768.70;1305.60;;;;;;5093288;28;20020;-78
2021/08/15 08:47:14;;;;;;;9.50;6.28;;;768.90;1305.60;;;;;;5093317;28;20016;-77
2021/08/15 08:49:41;;;;;;;9.98;6.57;;;768.80;1280.00;;;;;;5093331;28;20369;-75
2021/08/15 08:52:08;;;;;;;9.48;5.97;;;768.90;1254.40;;;;;;5093306;28;20568;-78
2021/08/15 08:54:35;;;;;;;12.18;6.13;;;768.80;1280.00;;;;;;5093344;28;20435;-75
2021/08/15 08:57:01;;;;;;;9.77;6.55;;;793.60;1280.00;;;;;;5095920;28;20496;-76
2021/08/15 08:59:27;;;;;;;9.20;6.65;;;793.60;1305.60;;;;;;5097169;28;20027;-76
2021/08/15 09:01:53;;;;;;;9.55;6.47;;;793.60;1305.60;;;;;;5096123;28;20418;-76
2021/08/15 09:04:19;;;;;;;21.38;15.50;;;793.60;1305.60;;;;;;5095781;28;20073;-76
2021/08/15 09:06:46;;;;;;;19.52;16.00;;;793.60;1305.60;;;;;;5095736;28;20028;-76
2021/08/15 09:09:17;;;;;;;13.13;10.27;;;793.60;1280.00;;;;;;5096966;28;20051;-75
2021/08/15 09:11:51;;;;;;;14.20;7.10;;;793.60;1280.00;;;;;;5096837;28;20085;-76
2021/08/15 09:14:23;;;;;;;7.22;6.43;;;793.70;1280.00;;;;;;5097173;28;20085;-76
2021/08/15 09:16:52;;;;;;;8.43;6.95;;;793.70;1305.60;;;;;;5096773;28;20477;-76
2021/08/15 09:19:25;;;;;;;9.68;6.30;;;793.80;1254.40;;;;;;5096733;28;20024;-76
2021/08/15 09:21:53;;;;;;;8.13;5.85;;;793.80;1254.40;;;;;;5096972;28;20085;-76
2021/08/15 09:24:19;;;;;;;9.45;6.53;;;793.90;1254.40;;;;;;5096690;28;20019;-75
2021/08/15 09:26:56;;;;;;;11.13;6.25;;;793.80;1254.40;;;;;;5096692;28;20111;-76
2021/08/15 09:29:22;;;;;;;12.57;10.38;;;793.80;1228.80;;;;;;5096648;28;20020;-77
2021/08/15 09:31:48;;;;;;;9.77;7.15;;;793.80;1254.40;;;;;;5096455;28;20032;-78
2021/08/15 09:34:28;;;;;;;8.98;7.63;;;793.90;1177.60;;;;;;5095210;28;20058;-77
2021/08/15 09:36:56;;;;;;;11.43;8.05;;;794.00;1203.20;;;;;;5096477;28;20026;-76
2021/08/15 09:39:34;;;;;;;20.85;7.63;;;794.00;1177.60;;;;;;5095125;28;20025;-76
2021/08/15 09:42:00;;;;;;;6.85;5.97;;;794.00;1152.00;;;;;;5095118;28;20499;-76
2021/08/15 09:44:31;;;;;;;9.85;5.60;;;794.00;1177.60;;;;;;5094999;28;20031;-76
2021/08/15 09:46:59;;;;;;;11.40;6.47;;;794.10;1228.80;;;;;;5096246;28;20027;-76
2021/08/15 09:49:32;;;;;;;8.23;5.40;;;794.10;1228.80;;;;;;5096157;28;20016;-75
2021/08/15 09:51:58;;;;;;;8.68;5.93;;;794.10;1203.20;;;;;;5094736;28;20077;-75
2021/08/15 09:54:25;;;;;;;6.85;5.72;;;794.10;1228.80;;;;;;5096070;28;20027;-76
2021/08/15 09:56:51;;;;;;;9.10;6.10;;;794.30;1228.80;;;;;;5094781;28;20024;-76
2021/08/15 09:59:19;;;;;;;39.08;8.23;;;794.30;1203.20;;;;;;5096031;28;20028;-76
2021/08/15 10:01:47;;;;;;;19.52;7.10;;;794.30;1177.60;;;;;;5095949;28;20031;-76
2021/08/15 10:04:16;;;;;;;14.25;6.30;;;794.30;1203.20;;;;;;5095928;28;20016;-76
2021/08/15 10:06:44;;;;;;;8.60;6.60;;;794.30;1177.60;;;;;;5094276;28;20035;-76
2021/08/15 10:09:10;;;;;;;9.27;6.15;;;794.30;1177.60;;;;;;5094558;28;20025;-75
2021/08/15 10:11:38;;;;;;;10.70;5.55;;;794.30;1152.00;;;;;;5094183;28;20044;-76
2021/08/15 10:14:06;;;;;;;9.75;5.85;;;794.30;1152.00;;;;;;5094428;28;20138;-75
2021/08/15 10:16:48;;;;;;;15.00;6.47;;;794.30;1152.00;;;;;;5094450;28;20020;-76
2021/08/15 10:19:17;;;;;;;14.85;6.68;;;794.30;1126.40;;;;;;5095722;28;20019;-75
2021/08/15 10:21:48;;;;;;;10.32;6.97;;;794.40;1177.60;;;;;;5094237;28;20507;-76
2021/08/15 10:24:16;;;;;;;8.10;6.30;;;794.40;1152.00;;;;;;5095835;28;20515;-75
2021/08/15 10:26:50;;;;;;;12.27;6.15;;;794.50;1152.00;;;;;;5095477;28;20020;-75
2021/08/15 10:29:37;;;;;;;12.32;6.15;;;794.50;1152.00;;;;;;5095804;28;20078;-76
2021/08/15 10:32:12;;;;;;;7.75;6.45;;;819.20;1152.00;;;;;;5094043;28;20078;-76
2021/08/15 10:34:50;;;;;;;19.23;6.95;;;819.20;1152.00;;;;;;5095300;28;20020;-77
2021/08/15 10:37:27;;;;;;;7.22;6.53;;;819.20;1126.40;;;;;;5095221;28;20067;-76
2021/08/15 10:40:02;;;;;;;12.10;6.70;;;819.20;1126.40;;;;;;5095187;28;20121;-78
2021/08/15 10:42:43;;;;;;;7.35;5.80;;;819.20;1126.40;;;;;;5095206;28;20058;-77
2021/08/15 10:45:13;;;;;;;12.52;6.82;;;819.30;1152.00;;;;;;5093831;28;20031;-75
2021/08/15 10:47:39;;;;;;;11.07;6.10;;;819.20;1152.00;;;;;;5095105;28;20013;-76
2021/08/15 10:50:09;;;;;;;12.85;6.85;;;819.20;1126.40;;;;;;5095089;28;20051;-77
2021/08/15 10:52:38;;;;;;;15.73;12.50;;;819.30;1100.80;;;;;;5093657;28;20129;-77
2021/08/15 10:55:10;;;;;;;10.63;7.10;;;819.40;1126.40;;;;;;5095216;28;20020;-76
2021/08/15 10:57:47;;;;;;;9.15;6.10;;;819.50;1152.00;;;;;;5094875;28;20028;-76
2021/08/15 11:00:29;;;;;;;26.70;13.05;;;819.50;1152.00;;;;;;5094884;28;20028;-76
2021/08/15 11:02:56;;;;;;;15.07;7.47;;;819.50;1126.40;;;;;;5093484;28;20028;-76
2021/08/15 11:05:40;;;;;;;23.25;6.50;;;819.50;1126.40;;;;;;5094570;28;20073;-76
2021/08/15 11:08:32;;;;;;;63.60;9.18;;;819.60;1100.80;;;;;;5094790;28;20027;-76
2021/08/15 11:11:14;;;;;;;100.40;24.60;;;819.60;1126.40;;;;;;5094171;28;20020;-76
2021/08/15 11:13:40;;;;;;;171.50;13.17;;;819.50;1126.40;;;;;;5094553;28;20040;-76
2021/08/15 11:16:27;;;;;;;24.23;7.32;;;819.50;1152.00;;;;;;5094638;28;20024;-76
2021/08/15 11:19:09;;;;;;;63.55;11.73;;;819.70;1126.40;;;;;;5092884;28;20552;-77
2021/08/15 11:21:59;;;;;;;95.07;13.60;;;819.70;1152.00;;;;;;5094697;28;20067;-77
2021/08/15 11:24:25;;;;;;;18.27;6.50;;;819.70;1100.80;;;;;;5094428;28;20028;-77
2021/08/15 11:26:52;;;;;;;18.73;6.97;;;819.70;1075.20;;;;;;5094372;28;20032;-77
2021/08/15 11:29:22;;;;;;;10.05;6.07;;;819.70;1100.80;;;;;;5094325;28;20107;-77
2021/08/15 11:31:49;;;;;;;12.07;6.35;;;;;;;;;;5092845;28;20493;-76
2021/08/15 11:34:15;;;;;;;38.15;6.85;;;820.00;1100.80;;;;;;5094240;28;20044;-76
2021/08/15 11:36:41;;;;;;;183.73;19.38;;;819.80;1126.40;;;;;;5092896;28;20023;-75
2021/08/15 11:39:08;;;;;;;22.08;6.50;;;819.80;1126.40;;;;;;5094073;28;20028;-75
2021/08/15 11:41:40;;;;;;;21.00;6.43;;;819.90;1152.00;;;;;;5094370;28;20103;-77
2021/08/15 11:44:06;;;;;;;205.82;21.73;;;819.90;1100.80;;;;;;5094051;28;20016;-77
2021/08/15 11:46:32;;;;;;;21.77;6.75;;;819.90;1100.80;;;;;;5092764;28;20020;-76
2021/08/15 11:48:58;;;;;;;22.73;6.38;;;819.90;1100.80;;;;;;5092709;28;20043;-76
2021/08/15 11:51:23;;;;;;;36.50;7.43;;;820.00;1100.80;;;;;;5093943;28;20024;-75
2021/08/15 11:53:49;;;;;;;14.00;5.40;;;820.10;1075.20;;;;;;5093836;28;20484;-77
2021/08/15 11:56:21;;;;;;;10.70;5.20;;;820.00;1100.80;;;;;;5092545;28;20101;-75
2021/08/15 11:58:53;;;;;;;54.78;9.52;;;820.10;1075.20;;;;;;5092675;28;20123;-76
2021/08/15 12:01:21;;;;;;;17.02;5.97;;;844.80;1075.20;;;;;;5092601;28;20097;-76
2021/08/15 12:03:57;;;;;;;86.82;10.30;;;820.10;1049.60;;;;;;5092544;28;20209;-76
2021/08/15 12:06:23;;;;;;;7.40;5.45;;;820.10;1075.20;;;;;;5092533;28;20032;-76
2021/08/15 12:08:49;;;;;;;18.73;6.70;;;844.80;1100.80;;;;;;5092495;28;20047;-76
2021/08/15 12:11:30;;;;;;;59.25;8.95;;;844.80;1075.20;;;;;;5093504;28;20044;-76
2021/08/15 12:14:09;;;;;;;18.10;6.43;;;844.80;1075.20;;;;;;5093668;28;20043;-76
2021/08/15 12:16:37;;;;;;;34.17;5.90;;;844.80;1100.80;;;;;;5092396;28;20385;-75
2021/08/15 12:19:05;;;;;;;30.33;6.35;;;844.90;1100.80;;;;;;5093660;28;20024;-76
2021/08/15 12:21:34;;;;;;;23.50;5.88;;;844.90;1075.20;;;;;;5092373;28;20024;-75
2021/08/15 12:24:14;;;;;;;216.63;19.00;;;844.90;1075.20;;;;;;5092228;28;20416;-76
2021/08/15 12:26:55;;;;;;;21.60;6.25;;;845.00;1049.60;;;;;;5092393;28;20028;-75
2021/08/15 12:29:24;;;;;;;13.70;5.60;;;845.00;1049.60;;;;;;5096484;28;20477;-76
2021/08/15 12:32:03;;;;;;;7.22;4.40;;;845.00;1075.20;;;;;;5097552;28;20495;-75
2021/08/15 12:34:29;;;;;;;22.92;5.40;;;845.00;1100.80;;;;;;5096369;28;20028;-76